»·PEaware :: N92131 KSNA-KSNA

N92131 :: KSNA-KSNA

FLIGHT INFORMATION

Flight Status: Arrived
Operator: Privately registered:
United States
More flights under this callsign
Pilot: Manhattan Flying Club (7137)
Aircraft: CESSNA 172 SKYHAWK
(C172)
More flights by this aircraft type
Origin: KSNA John Wayne-Orange Co
United States
Destination: KSNA John Wayne-Orange Co
United States
More flights between these airports :: More routes between these airports
Route: +SLI
File this flight plan on PilotEdge
Remarks: I-1 RATING
Altitude:
(Current/Filed)
3,000ft
Speed:
(Current/Filed)
110kts
Departed: 13-Jan-18 01:06 PM
Arrived: 13-Jan-18 01:36 PM
Distance/Time
Traveled:
0nm/0:30
Distance/Time
To Go:
Arrived

Flight Plot

Page will automatically refresh every two minutes.


Map Options




Map Legend


Flown Route
Filed Route
Departure Airport
Arrival Airport
Navaid (VOR, NDB)
Fix

Horizontal Profiles

Position Reports

Time Latitude Longitude Heading Altitude Ground
Speed
13-Jan-18 12:53 33.666754 -117.871820 316 59ft 0kts
13-Jan-18 12:54 33.666754 -117.871820 316 59ft 0kts
13-Jan-18 12:55 33.666754 -117.871820 316 59ft 0kts
13-Jan-18 12:56 33.666754 -117.871820 316 59ft 0kts
13-Jan-18 12:57 33.666754 -117.871820 316 59ft 0kts
13-Jan-18 12:58 33.666754 -117.871820 316 59ft 0kts
13-Jan-18 12:59 33.666754 -117.871820 316 59ft 0kts
13-Jan-18 13:00 33.666800 -117.871876 314 59ft 3kts
13-Jan-18 13:01 33.668504 -117.871386 39 59ft 15kts
13-Jan-18 13:02 33.672914 -117.867398 41 59ft 21kts
13-Jan-18 13:03 33.676186 -117.865765 28 59ft 19kts
13-Jan-18 13:04 33.680004 -117.863638 301 59ft 0kts
13-Jan-18 13:05 33.680004 -117.863638 301 59ft 0kts
13-Jan-18 13:06 33.680004 -117.863638 301 59ft 0kts
13-Jan-18 13:07 33.680004 -117.863638 301 59ft 0kts
13-Jan-18 13:08 33.680004 -117.863638 301 59ft 0kts
13-Jan-18 13:09 33.680004 -117.863638 301 59ft 0kts
13-Jan-18 13:10 33.680004 -117.863638 301 59ft 0kts
13-Jan-18 13:11 33.680004 -117.863638 301 59ft 0kts
13-Jan-18 13:12 33.672879 -117.868773 208 256ft 73kts
13-Jan-18 13:13 33.658866 -117.883885 234 1265ft 70kts
13-Jan-18 13:14 33.644877 -117.902738 228 2202ft 87kts
13-Jan-18 13:15 33.625092 -117.932177 234 2532ft 119kts
13-Jan-18 13:16 33.614187 -117.966343 309 2931ft 110kts
13-Jan-18 13:17 33.639406 -117.964527 23 2984ft 131kts
13-Jan-18 13:18 33.663475 -117.951874 20 3087ft 123kts
13-Jan-18 13:19 33.687475 -117.940529 22 3009ft 131kts
13-Jan-18 13:20 33.711950 -117.928971 22 3008ft 128kts
13-Jan-18 13:21 33.735003 -117.913553 32 3009ft 126kts
13-Jan-18 13:22 33.758526 -117.896253 32 3009ft 125kts
13-Jan-18 13:23 33.783103 -117.878174 32 3009ft 125kts
13-Jan-18 13:24 33.808850 -117.859228 32 3009ft 125kts
13-Jan-18 13:25 33.836285 -117.839030 31 3009ft 125kts
13-Jan-18 13:26 33.864812 -117.818021 31 3009ft 125kts
13-Jan-18 13:27 33.894501 -117.796149 31 3009ft 125kts
13-Jan-18 13:28 33.924233 -117.774235 31 3009ft 125kts
13-Jan-18 13:29 33.953946 -117.752329 31 3009ft 125kts
13-Jan-18 13:30 33.964758 -117.722298 145 3007ft 123kts
13-Jan-18 13:31 33.931651 -117.725175 189 3009ft 122kts
13-Jan-18 13:32 33.900999 -117.731316 189 3009ft 122kts
13-Jan-18 13:33 33.872749 -117.743612 210 3059ft 121kts
13-Jan-18 13:34 33.849190 -117.760222 209 3068ft 122kts
13-Jan-18 13:35 33.825767 -117.774784 207 3061ft 122kts
13-Jan-18 13:36 33.801998 -117.788631 208 3054ft 123kts
13-Jan-18 13:37 33.774579 -117.806061 209 1932ft 122kts
13-Jan-18 13:38 33.750539 -117.821222 207 1580ft 80kts
13-Jan-18 13:39 33.729860 -117.834391 206 1161ft 95kts
13-Jan-18 13:40 33.709612 -117.846908 203 900ft 84kts
13-Jan-18 13:41 33.690292 -117.859474 206 318ft 75kts
13-Jan-18 13:42 33.677911 -117.867774 266 59ft 23kts
13-Jan-18 13:43 33.677516 -117.869547 221 59ft 0kts
13-Jan-18 13:44 33.676175 -117.870865 215 59ft 0kts
13-Jan-18 13:45 33.676175 -117.870865 215 59ft 0kts
13-Jan-18 13:46 33.676175 -117.870865 215 59ft 0kts
13-Jan-18 13:47 33.676175 -117.870865 215 59ft 0kts
13-Jan-18 13:48 33.676175 -117.870865 215 59ft 0kts
13-Jan-18 13:49 33.676175 -117.870865 215 59ft 0kts
13-Jan-18 13:50 33.676175 -117.870865 215 59ft 0kts
13-Jan-18 13:51 33.676175 -117.870865 215 59ft 0kts
13-Jan-18 13:52 33.676175 -117.870865 215 59ft 0kts
13-Jan-18 13:53 33.676175 -117.870865 215 59ft 0kts
13-Jan-18 13:54 33.676175 -117.870865 215 59ft 0kts
13-Jan-18 13:55 33.676175 -117.870865 215 59ft 0kts
13-Jan-18 13:56 33.676175 -117.870865 215 59ft 0kts
13-Jan-18 13:57 33.676175 -117.870865 215 59ft 0kts

Navigation Log

Ident Type
1. KSNA Airport
2. SLI Navaid
3. KSNA Airport